Tim Quigg — WDB6570 — position and weather

sailwx.info

Track history (hours):
 
Tides and Currents Weather Stations Pressure Air Temp Water Temp Dewpoint Dewpoint Depression Visibility Wind Speed Wind Dir Waves Ship Positions

Tim Quigg

Owner: Harley Marine Services, Inc, Seattle, WA. More information available from US FCC via Universal Licensing System and Coast Guard Vessel Documentation Center.

Last reported at 2017-Sep-19 15:45 UTC. Time now 2017-Sep-19 16:57 UTC.
Position N 33°44' W 118°16'.

; draft 4.4 m.

Type: Tug. MMSI: 366926740.

Date/timePositionNaut miles runAvg speedWind from/ knotsBaromVisibWave heightAir tempDewpointWater temp
2017-Sep-19 15:45N 33°44' W 118°16'1 4.0
2017-Sep-19 15:30N 33°43' W 118°15'3 3.9
2017-Sep-19 14:45N 33°45' W 118°13'3 3.9
2017-Sep-19 14:04N 33°43' W 118°15'2 4.9
2017-Sep-19 13:42N 33°44' W 118°16'0 0.2
2017-Sep-19 13:21N 33°44' W 118°16'1 1.4
2017-Sep-19 12:53N 33°44' W 118°16'1 1.1
2017-Sep-19 12:20N 33°43' W 118°16'1 2.7
2017-Sep-19 12:00N 33°44' W 118°15'0 0.1
2017-Sep-19 11:23N 33°44' W 118°15'1 1.0
2017-Sep-19 10:43N 33°44' W 118°16'0 0.0
2017-Sep-19 10:30N 33°44' W 118°16'0 0.0
2017-Sep-19 09:54N 33°44' W 118°16'0 0.0
2017-Sep-19 09:28N 33°44' W 118°16'0 0.0
2017-Sep-19 09:00N 33°44' W 118°16'0 0.1
2017-Sep-19 08:29N 33°44' W 118°16'2 4.8
2017-Sep-19 07:59N 33°44' W 118°13'2 4.5
2017-Sep-19 07:27N 33°44' W 118°16'0 0.2
2017-Sep-19 06:51N 33°44' W 118°16'0 0.0
2017-Sep-19 06:29N 33°44' W 118°16'0 0.0
2017-Sep-19 05:44N 33°44' W 118°16'0 0.0
2017-Sep-19 04:46N 33°44' W 118°16'0 0.0
2017-Sep-19 04:19N 33°44' W 118°16'0 0.0
2017-Sep-19 03:41N 33°44' W 118°16'0 0.0
2017-Sep-19 03:23N 33°44' W 118°16'0 0.0
2017-Sep-19 02:59N 33°44' W 118°16'1 2.0
2017-Sep-19 02:29N 33°45' W 118°17'1 0.8
2017-Sep-19 01:48N 33°45' W 118°16'1 3.7
2017-Sep-19 01:26N 33°44' W 118°16'0 0.0
2017-Sep-19 01:00N 33°44' W 118°16'1 1.3
2017-Sep-19 00:30N 33°43' W 118°16'2 4.7
2017-Sep-19 00:00N 33°46' W 118°16'2 3.6
2017-Sep-18 23:29N 33°44' W 118°16'0 0.0
2017-Sep-18 22:56N 33°44' W 118°16'0 0.0
2017-Sep-18 22:16N 33°44' W 118°16'0 0.0
2017-Sep-18 22:00N 33°44' W 118°16'2 4.1
2017-Sep-18 21:30N 33°43' W 118°14'2 4.8
2017-Sep-18 21:00N 33°45' W 118°13'0 0.0
2017-Sep-18 20:20N 33°45' W 118°13'0 0.0
2017-Sep-18 20:00N 33°45' W 118°13'0 0.0
2017-Sep-18 19:29N 33°45' W 118°13'1 1.6
2017-Sep-18 18:56N 33°45' W 118°13'2 4.6
2017-Sep-18 18:30N 33°44' W 118°11'1 1.2
2017-Sep-18 18:00N 33°44' W 118°10'4 7.3
2017-Sep-18 17:26N 33°43' W 118°15'1 2.8
2017-Sep-18 17:00N 33°44' W 118°16'0 0.1
2017-Sep-18 16:28N 33°44' W 118°16'3 6.0
2017-Sep-18 16:00N 33°44' W 118°12'4 7.3
2017-Sep-18 15:30N 33°44' W 118°08'1 1.8
2017-Sep-18 14:42N 33°44' W 118°06'0 0.4
2017-Sep-18 14:29N 33°44' W 118°06'0 0.5
2017-Sep-18 13:57N 33°44' W 118°06'4 8.0
2017-Sep-18 13:29N 33°44' W 118°11'2 4.0
2017-Sep-18 12:55N 33°45' W 118°13'0 0.0
2017-Sep-18 12:28N 33°45' W 118°13'0 0.3
2017-Sep-18 11:57N 33°45' W 118°13'2 4.6
2017-Sep-18 11:29N 33°44' W 118°11'1 1.4
2017-Sep-18 10:57N 33°44' W 118°12'3 6.5
2017-Sep-18 10:29N 33°44' W 118°16'0 0.0
2017-Sep-18 09:58N 33°44' W 118°16'0 0.0
2017-Sep-18 09:23N 33°44' W 118°16'0 0.0
2017-Sep-18 08:53N 33°44' W 118°16'0 0.3
2017-Sep-18 08:29N 33°44' W 118°16'2 4.0
2017-Sep-18 08:00N 33°44' W 118°13'0 0.1
2017-Sep-18 07:29N 33°44' W 118°13'0 0.1
2017-Sep-18 06:57N 33°44' W 118°13'0 0.1
2017-Sep-18 06:20N 33°44' W 118°13'1 3.5
2017-Sep-18 05:57N 33°43' W 118°15'1 2.8
2017-Sep-18 05:30N 33°44' W 118°16'0 0.0
2017-Sep-18 04:19N 33°44' W 118°16'1 2.3
2017-Sep-18 03:58N 33°44' W 118°17'2 3.9
2017-Sep-18 03:25N 33°46' W 118°15'1 3.2
2017-Sep-18 02:59N 33°46' W 118°13'3 4.4
2017-Sep-18 02:16N 33°44' W 118°10'2 6.0
2017-Sep-18 01:54N 33°45' W 118°12'0 0.4
2017-Sep-18 01:17N 33°45' W 118°12'0 0.0
2017-Sep-18 00:49N 33°45' W 118°12'0 0.1
2017-Sep-18 00:25N 33°45' W 118°12'1 2.7
2017-Sep-17 23:59N 33°44' W 118°13'2 3.2
2017-Sep-17 23:28N 33°43' W 118°15'1 2.7
2017-Sep-17 22:59N 33°44' W 118°16'0 0.0
2017-Sep-17 22:30N 33°44' W 118°16'0 0.0
2017-Sep-17 21:58N 33°44' W 118°16'0 0.0
2017-Sep-17 21:29N 33°44' W 118°16'0 0.0
2017-Sep-17 20:55N 33°44' W 118°16'0 0.0
2017-Sep-17 20:30N 33°44' W 118°16'0 0.0
2017-Sep-17 20:00N 33°44' W 118°16'0 0.0
2017-Sep-17 19:30N 33°44' W 118°16'0 0.0
2017-Sep-17 19:00N 33°44' W 118°16'0 0.0
2017-Sep-17 18:30N 33°44' W 118°16'0 0.0
2017-Sep-17 17:34N 33°44' W 118°16'0 0.0
2017-Sep-17 15:35N 33°44' W 118°16'2 2.0
2017-Sep-17 14:38N 33°43' W 118°13'2 8.5
2017-Sep-17 14:26N 33°43' W 118°16'1 1.8
2017-Sep-17 13:54N 33°44' W 118°16'1 1.7
2017-Sep-17 13:14N 33°43' W 118°15'1 2.4
2017-Sep-17 12:44N 33°44' W 118°16'0 0.0
2017-Sep-17 12:28N 33°44' W 118°16'0 0.0
2017-Sep-17 11:56N 33°44' W 118°16'0 0.0
2017-Sep-17 11:26N 33°44' W 118°16'0 0.0
2017-Sep-17 10:55N 33°44' W 118°16'3 6.5
2017-Sep-17 10:28N 33°44' W 118°12'1 1.4
2017-Sep-17 09:58N 33°44' W 118°12'1 2.0
2017-Sep-17 09:30N 33°45' W 118°13'0 0.0
2017-Sep-17 08:55N 33°45' W 118°13'0 0.0
2017-Sep-17 08:30N 33°45' W 118°13'0 0.0
2017-Sep-17 07:59N 33°45' W 118°13'2 3.1
2017-Sep-17 07:28N 33°46' W 118°15'2 3.2
2017-Sep-17 06:50N 33°45' W 118°16'1 3.2
2017-Sep-17 06:30N 33°44' W 118°16'1 2.2
2017-Sep-17 06:00N 33°43' W 118°15'4 4.3
2017-Sep-17 05:10N 33°46' W 118°13'0 0.6
2017-Sep-17 05:00N 33°46' W 118°13'0 0.1
2017-Sep-17 04:28N 33°46' W 118°13'1 2.5
2017-Sep-17 03:57N 33°45' W 118°13'0 0.0
2017-Sep-17 03:29N 33°45' W 118°13'0 0.0
2017-Sep-17 02:57N 33°45' W 118°13'0 0.0
2017-Sep-17 02:22N 33°45' W 118°13'1 1.1
2017-Sep-17 01:23N 33°44' W 118°12'1 2.4
2017-Sep-17 00:57N 33°45' W 118°13'0 0.0
2017-Sep-17 00:29N 33°45' W 118°13'1 1.6
2017-Sep-16 23:58N 33°45' W 118°14'1 3.2
2017-Sep-16 23:30N 33°44' W 118°13'2 3.4
2017-Sep-16 22:57N 33°44' W 118°16'0 0.0
2017-Sep-16 22:28N 33°44' W 118°16'0 0.0
2017-Sep-16 21:54N 33°44' W 118°16'0 0.0
2017-Sep-16 21:30N 33°44' W 118°16'0 0.0
2017-Sep-16 20:58N 33°44' W 118°16'0 0.0
2017-Sep-16 20:30N 33°44' W 118°16'0 0.0
2017-Sep-16 19:59N 33°44' W 118°16'0 0.0
2017-Sep-16 19:30N 33°44' W 118°16'0 0.0
2017-Sep-16 18:58N 33°44' W 118°16'0 0.0
2017-Sep-16 18:30N 33°44' W 118°16'0 0.0
2017-Sep-16 18:00N 33°44' W 118°16'0 0.0
2017-Sep-16 17:31N 33°44' W 118°16'0 0.0
2017-Sep-16 16:56N 33°44' W 118°16'0 0.0
2017-Sep-16 16:16N 33°44' W 118°16'0 0.0
2017-Sep-16 15:57N 33°44' W 118°16'0 0.0
2017-Sep-16 15:28N 33°44' W 118°16'0 0.0
2017-Sep-16 14:16N 33°44' W 118°16'3 3.2
2017-Sep-16 13:18N 33°45' W 118°12'1 3.5
2017-Sep-16 12:53N 33°46' W 118°13'0 0.9
2017-Sep-16 12:25N 33°46' W 118°13'0 0.1
2017-Sep-16 11:58N 33°46' W 118°13'0 0.0
2017-Sep-16 11:27N 33°46' W 118°13'0 0.0
2017-Sep-16 10:59N 33°46' W 118°13'3 6.0
2017-Sep-16 10:27N 33°43' W 118°14'1 3.2
2017-Sep-16 10:00N 33°44' W 118°16'0 0.0
2017-Sep-16 09:30N 33°44' W 118°16'0 0.0
2017-Sep-16 08:48N 33°44' W 118°16'0 0.0
2017-Sep-16 08:21N 33°44' W 118°16'0 0.0
2017-Sep-16 08:00N 33°44' W 118°16'0 0.0
2017-Sep-16 07:30N 33°44' W 118°16'0 0.0
2017-Sep-16 06:56N 33°44' W 118°16'1 3.5
2017-Sep-16 06:30N 33°43' W 118°14'3 6.7
2017-Sep-16 06:00N 33°46' W 118°13'0 0.0
2017-Sep-16 05:27N 33°46' W 118°13'0 0.0
2017-Sep-16 04:59N 33°46' W 118°13'0 0.8
2017-Sep-16 04:27N 33°46' W 118°13'2 3.3
2017-Sep-16 03:55N 33°44' W 118°12'1 3.0
2017-Sep-16 03:30N 33°44' W 118°11'0 0.2
2017-Sep-16 03:00N 33°43' W 118°11'0 0.6
2017-Sep-16 02:29N 33°44' W 118°12'0 0.5
2017-Sep-16 01:59N 33°43' W 118°12'4 6.9
2017-Sep-16 01:26N 33°44' W 118°16'2 4.0
2017-Sep-16 01:00N 33°46' W 118°16'0 0.3
2017-Sep-16 00:29N 33°46' W 118°16'0 0.0
2017-Sep-15 23:56N 33°46' W 118°16'2 4.9
2017-Sep-15 23:31N 33°45' W 118°13'0 0.3
2017-Sep-15 22:58N 33°46' W 118°13'2 3.1
2017-Sep-15 22:29N 33°44' W 118°12'0 1.0
2017-Sep-15 22:01N 33°45' W 118°12'3 5.6
2017-Sep-15 21:28N 33°44' W 118°16'0 0.5
2017-Sep-15 20:59N 33°44' W 118°15'0 0.4
2017-Sep-15 20:31N 33°44' W 118°16'0 0.0
2017-Sep-15 20:01N 33°44' W 118°16'0 0.0
2017-Sep-15 19:31N 33°44' W 118°16'0 0.0
2017-Sep-15 18:56N 33°44' W 118°16'0 0.0
2017-Sep-15 18:26N 33°44' W 118°16'0 0.0
2017-Sep-15 17:59N 33°44' W 118°16'0 0.0
2017-Sep-15 17:30N 33°44' W 118°16'0 0.0
2017-Sep-15 16:51N 33°44' W 118°16'0 0.0
2017-Sep-15 16:29N 33°44' W 118°16'0 0.0
2017-Sep-15 15:59N 33°44' W 118°16'0 0.0
2017-Sep-15 15:29N 33°44' W 118°16'2 4.3
2017-Sep-15 14:57N 33°45' W 118°13'1 1.2
2017-Sep-15 14:30N 33°45' W 118°14'2 4.0
2017-Sep-15 13:57N 33°43' W 118°15'1 2.1
2017-Sep-15 13:30N 33°44' W 118°15'0 0.2
2017-Sep-15 12:58N 33°44' W 118°16'2 3.4
2017-Sep-15 12:23N 33°46' W 118°16'1 1.6
2017-Sep-15 11:57N 33°45' W 118°16'1 2.7
2017-Sep-15 11:28N 33°44' W 118°16'0 0.0
2017-Sep-15 10:59N 33°44' W 118°16'0 0.0
2017-Sep-15 10:28N 33°44' W 118°16'0 0.0
2017-Sep-15 09:58N 33°44' W 118°16'0 0.0
2017-Sep-15 09:29N 33°44' W 118°16'0 0.0
2017-Sep-15 09:00N 33°44' W 118°16'0 0.0
2017-Sep-15 08:30N 33°44' W 118°16'0 0.0
2017-Sep-15 08:00N 33°44' W 118°16'1 1.0
2017-Sep-15 07:28N 33°44' W 118°16'1 1.6
2017-Sep-15 07:00N 33°44' W 118°16'0 0.5
2017-Sep-15 06:27N 33°44' W 118°16'0 0.0
2017-Sep-15 05:56N 33°44' W 118°16'0 0.0
2017-Sep-15 05:28N 33°44' W 118°16'0 0.0
2017-Sep-15 05:01N 33°44' W 118°16'0 0.0
2017-Sep-15 04:28N 33°44' W 118°16'0 0.0
2017-Sep-15 03:54N 33°44' W 118°16'0 0.0
2017-Sep-15 03:26N 33°44' W 118°16'0 0.0
2017-Sep-15 02:57N 33°44' W 118°16'0 0.0
2017-Sep-15 02:30N 33°44' W 118°16'0 0.0
2017-Sep-15 01:57N 33°44' W 118°16'0 0.0
2017-Sep-15 01:30N 33°44' W 118°16'0 0.0
2017-Sep-15 00:58N 33°44' W 118°16'0 0.5
2017-Sep-15 00:30N 33°44' W 118°16'1 1.2
2017-Sep-14 23:59N 33°44' W 118°15'0 0.9
2017-Sep-14 23:28N 33°44' W 118°16'0 0.0
2017-Sep-14 23:00N 33°44' W 118°16'1 1.4
2017-Sep-14 22:30N 33°44' W 118°17'2 3.5
2017-Sep-14 21:56N 33°46' W 118°16'0 0.4
2017-Sep-14 21:30N 33°46' W 118°16'0 0.0
2017-Sep-14 21:01N 33°46' W 118°16'0 0.0
2017-Sep-14 20:29N 33°46' W 118°16'0 0.0
2017-Sep-14 20:00N 33°46' W 118°16'0 0.0
2017-Sep-14 19:27N 33°46' W 118°16'0 0.6
2017-Sep-14 19:01N 33°45' W 118°16'2 2.8
2017-Sep-14 18:27N 33°44' W 118°16'0 0.0
2017-Sep-14 18:00N 33°44' W 118°16'0 0.0
2017-Sep-14 17:30N 33°44' W 118°16'0 0.0
2017-Sep-14 17:00N 33°44' W 118°16'0 0.0
2017-Sep-14 16:30N 33°44' W 118°16'2 4.6
2017-Sep-14 16:00N 33°45' W 118°13'0 0.9
2017-Sep-14 15:30N 33°45' W 118°13'0 0.2
2017-Sep-14 15:01N 33°45' W 118°13'0 0.0
2017-Sep-14 14:30N 33°45' W 118°13'0 0.0
2017-Sep-14 13:59N 33°45' W 118°13'1 2.6
2017-Sep-14 13:27N 33°44' W 118°12'1 1.9
2017-Sep-14 13:00N 33°45' W 118°13'1 2.9
2017-Sep-14 12:30N 33°46' W 118°13'1 1.8
2017-Sep-14 12:00N 33°45' W 118°13'2 3.2
2017-Sep-14 11:21N 33°44' W 118°12'0 0.2
2017-Sep-14 11:00N 33°44' W 118°12'1 2.6
2017-Sep-14 10:30N 33°44' W 118°13'0 0.0
2017-Sep-14 10:00N 33°44' W 118°13'0 0.0
2017-Sep-14 09:29N 33°44' W 118°13'0 0.0
2017-Sep-14 08:59N 33°44' W 118°13'0 0.1
2017-Sep-14 08:30N 33°44' W 118°13'2 3.1
2017-Sep-14 08:00N 33°44' W 118°15'0 0.3
2017-Sep-14 07:30N 33°44' W 118°15'1 2.3
2017-Sep-14 06:59N 33°43' W 118°15'1 2.5
2017-Sep-14 06:29N 33°44' W 118°16'0 0.0
2017-Sep-14 06:00N 33°44' W 118°16'0 0.0
2017-Sep-14 05:30N 33°44' W 118°16'0 0.0
2017-Sep-14 05:00N 33°44' W 118°16'0 0.0
2017-Sep-14 04:28N 33°44' W 118°16'1 2.5
2017-Sep-14 04:00N 33°43' W 118°15'3 6.1
2017-Sep-14 03:30N 33°46' W 118°13'1 1.9
2017-Sep-14 03:00N 33°46' W 118°13'0 0.0
2017-Sep-14 02:30N 33°46' W 118°13'0 0.2
2017-Sep-14 02:00N 33°47' W 118°13'3 6.8
2017-Sep-14 01:30N 33°44' W 118°10'0 0.4
2017-Sep-14 00:58N 33°44' W 118°10'3 7.1
2017-Sep-14 00:30N 33°43' W 118°14'3 5.2
2017-Sep-13 23:59N 33°45' W 118°16'1 1.8
2017-Sep-13 23:30N 33°46' W 118°16'0 0.7
2017-Sep-13 23:00N 33°45' W 118°16'2 4.5
2017-Sep-13 22:30N 33°43' W 118°16'0 0.7
2017-Sep-13 22:00N 33°43' W 118°16'3 5.8
2017-Sep-13 21:30N 33°46' W 118°17'0 0.8
2017-Sep-13 21:00N 33°45' W 118°17'2 4.0
2017-Sep-13 20:30N 33°43' W 118°16'1 2.9
2017-Sep-13 20:00N 33°43' W 118°15'1 2.7
2017-Sep-13 19:30N 33°44' W 118°16'0 0.0
2017-Sep-13 18:58N 33°44' W 118°16'0 0.0
2017-Sep-13 18:29N 33°44' W 118°16'0 0.0
2017-Sep-13 18:00N 33°44' W 118°16'0 0.0
2017-Sep-13 17:29N 33°44' W 118°16'0 0.0
2017-Sep-13 17:00N 33°44' W 118°16'1 1.1
2017-Sep-13 16:30N 33°44' W 118°15'1 2.3
2017-Sep-13 15:58N 33°43' W 118°14'2 3.4
2017-Sep-13 15:29N 33°45' W 118°13'2 4.6
2017-Sep-13 14:59N 33°44' W 118°10'2 4.3
2017-Sep-13 14:27N 33°45' W 118°13'2 3.6
2017-Sep-13 13:59N 33°46' W 118°14'1 2.2
2017-Sep-13 13:24N 33°45' W 118°13'3 6.5
2017-Sep-13 13:00N 33°43' W 118°15'1 2.2
2017-Sep-13 12:30N 33°44' W 118°15'0 0.6
2017-Sep-13 11:55N 33°44' W 118°16'1 1.2
2017-Sep-13 11:30N 33°43' W 118°16'1 1.4
2017-Sep-13 11:00N 33°43' W 118°15'1 2.4
2017-Sep-13 10:30N 33°44' W 118°16'2 3.6
2017-Sep-13 10:00N 33°45' W 118°16'2 3.8
2017-Sep-13 09:26N 33°43' W 118°16'1 1.4
2017-Sep-13 09:00N 33°44' W 118°16'0 0.0
2017-Sep-13 08:29N 33°44' W 118°16'0 0.0
2017-Sep-13 08:00N 33°44' W 118°16'0 0.0
2017-Sep-13 07:30N 33°44' W 118°16'0 0.0
2017-Sep-13 07:00N 33°44' W 118°16'0 0.0
2017-Sep-13 06:28N 33°44' W 118°16'0 0.0
2017-Sep-13 06:00N 33°44' W 118°16'0 0.0
2017-Sep-13 05:30N 33°44' W 118°16'0 0.0
2017-Sep-13 04:59N 33°44' W 118°16'0 0.0
2017-Sep-13 04:30N 33°44' W 118°16'0 0.0
2017-Sep-13 04:00N 33°44' W 118°16'0 0.0
2017-Sep-13 03:30N 33°44' W 118°16'2 4.5
2017-Sep-13 03:01N 33°43' W 118°13'3 6.8
2017-Sep-13 02:30N 33°44' W 118°09'2 3.5
2017-Sep-13 02:00N 33°44' W 118°11'2 3.2
2017-Sep-13 01:30N 33°45' W 118°12'0 0.0
2017-Sep-13 01:00N 33°45' W 118°12'2 4.9
2017-Sep-13 00:30N 33°43' W 118°14'1 2.9
2017-Sep-13 00:00N 33°44' W 118°16'0 0.0
2017-Sep-12 23:31N 33°44' W 118°16'0 0.0
2017-Sep-12 23:00N 33°44' W 118°16'0 0.0
2017-Sep-12 22:31N 33°44' W 118°16'0 0.0
2017-Sep-12 22:00N 33°44' W 118°16'0 0.0
2017-Sep-12 21:31N 33°44' W 118°16'1 1.1
2017-Sep-12 21:00N 33°44' W 118°15'0 0.6
2017-Sep-12 20:30N 33°44' W 118°15'1 1.9
2017-Sep-12 20:00N 33°44' W 118°16'1 2.4
2017-Sep-12 19:30N 33°45' W 118°16'1 2.7
2017-Sep-12 19:00N 33°44' W 118°16'0 0.2
2017-Sep-12 18:30N 33°44' W 118°16'0 0.0
2017-Sep-12 18:00N 33°44' W 118°16'0 0.0
2017-Sep-12 17:30N 33°44' W 118°16'0 0.0
2017-Sep-12 17:00N 33°44' W 118°16'0 0.0
2017-Sep-12 16:30N 33°44' W 118°16'2 3.6
2017-Sep-12 16:01N 33°43' W 118°14'1 1.3
2017-Sep-12 15:30N 33°43' W 118°13'2 3.2
2017-Sep-12 15:00N 33°45' W 118°12'0 0.0
2017-Sep-12 14:30N 33°45' W 118°12'2 3.4
2017-Sep-12 14:01N 33°44' W 118°13'3 5.3
2017-Sep-12 13:30N 33°45' W 118°16'0 0.3
2017-Sep-12 13:00N 33°45' W 118°16'0 0.1
2017-Sep-12 12:30N 33°45' W 118°16'1 2.3
2017-Sep-12 12:00N 33°44' W 118°16'0 0.1
2017-Sep-12 11:30N 33°44' W 118°16'1 2.9
2017-Sep-12 11:00N 33°43' W 118°15'1 2.0
2017-Sep-12 10:30N 33°43' W 118°16'0 0.0
2017-Sep-12 10:00N 33°43' W 118°16'0 0.0
2017-Sep-12 09:30N 33°43' W 118°16'0 0.1
2017-Sep-12 09:00N 33°43' W 118°16'3 6.2
2017-Sep-12 08:30N 33°45' W 118°12'1 2.3
2017-Sep-12 08:00N 33°44' W 118°12'0 0.0
2017-Sep-12 07:30N 33°44' W 118°12'0 0.1
2017-Sep-12 07:00N 33°44' W 118°12'0 0.0
2017-Sep-12 06:30N 33°44' W 118°12'1 1.1
2017-Sep-12 06:00N 33°44' W 118°13'3 5.0
2017-Sep-12 05:30N 33°44' W 118°16'0 0.0
2017-Sep-12 05:00N 33°44' W 118°16'0 0.0
2017-Sep-12 04:30N 33°44' W 118°16'0 0.0
2017-Sep-12 04:00N 33°44' W 118°16'0 0.0
2017-Sep-12 03:30N 33°44' W 118°16'0 0.0
2017-Sep-12 03:00N 33°44' W 118°16'0 0.0
2017-Sep-12 02:30N 33°44' W 118°16'1 1.1
2017-Sep-12 02:00N 33°43' W 118°16'1 1.4
2017-Sep-12 01:30N 33°44' W 118°15'0 0.5
2017-Sep-12 01:00N 33°44' W 118°16'0 0.0
2017-Sep-12 00:30N 33°44' W 118°16'0 0.0
2017-Sep-12 00:00N 33°44' W 118°16'0 0.0
2017-Sep-11 23:30N 33°44' W 118°16'0 0.0
2017-Sep-11 23:00N 33°44' W 118°16'0 0.0
2017-Sep-11 22:30N 33°44' W 118°16'0 0.0
2017-Sep-11 22:00N 33°44' W 118°16'0 0.0
2017-Sep-11 21:30N 33°44' W 118°16'0 0.0
2017-Sep-11 21:00N 33°44' W 118°16'0 0.0
2017-Sep-11 20:30N 33°44' W 118°16'0 0.0
2017-Sep-11 20:00N 33°44' W 118°16'0 0.0
2017-Sep-11 19:30N 33°44' W 118°16'0 0.0
2017-Sep-11 19:00N 33°44' W 118°16'0 0.0
2017-Sep-11 18:30N 33°44' W 118°16'0 0.0
2017-Sep-11 18:00N 33°44' W 118°16'0 0.0
2017-Sep-11 17:30N 33°44' W 118°16'0 0.0
2017-Sep-11 17:00N 33°44' W 118°16'0 0.0
2017-Sep-11 16:30N 33°44' W 118°16'0 0.7
2017-Sep-11 16:00N 33°44' W 118°16'5 9.5
2017-Sep-11 15:30N 33°44' W 118°10'4 7.6
2017-Sep-11 15:00N 33°44' W 118°05'1 1.3
2017-Sep-11 14:30N 33°44' W 118°06'0 0.3
2017-Sep-11 14:01N 33°44' W 118°06'1 1.9
2017-Sep-11 13:30N 33°43' W 118°07'5 9.8
2017-Sep-11 13:00N 33°45' W 118°13'2 3.7
2017-Sep-11 12:31N 33°46' W 118°13'0 0.8
2017-Sep-11 12:00N 33°47' W 118°13'3 5.2
2017-Sep-11 11:30N 33°44' W 118°13'2 3.7
2017-Sep-11 11:00N 33°44' W 118°16'0 0.0
2017-Sep-11 10:30N 33°44' W 118°16'0 0.0
2017-Sep-11 10:00N 33°44' W 118°16'0 0.0
2017-Sep-11 09:30N 33°44' W 118°16'0 0.0
2017-Sep-11 09:00N 33°44' W 118°16'0 0.0
2017-Sep-11 08:30N 33°44' W 118°16'0 0.0
2017-Sep-11 08:00N 33°44' W 118°16'0 0.0
2017-Sep-11 07:30N 33°44' W 118°16'0 0.0
2017-Sep-11 07:00N 33°44' W 118°16'0 0.0
2017-Sep-11 06:30N 33°44' W 118°16'0 0.0
2017-Sep-11 06:00N 33°44' W 118°16'0 0.0
2017-Sep-11 05:30N 33°44' W 118°16'0 0.0
2017-Sep-11 05:00N 33°44' W 118°16'0 0.0
2017-Sep-11 04:30N 33°44' W 118°16'0 0.0
2017-Sep-11 04:00N 33°44' W 118°16'0 0.0
2017-Sep-11 03:30N 33°44' W 118°16'0 0.0
2017-Sep-11 03:00N 33°44' W 118°16'0 0.0
2017-Sep-11 02:30N 33°44' W 118°16'0 0.0
2017-Sep-11 02:00N 33°44' W 118°16'0 0.0
2017-Sep-11 01:31N 33°44' W 118°16'2 4.6
2017-Sep-11 00:59N 33°45' W 118°13'1 2.1
2017-Sep-11 00:30N 33°46' W 118°13'1 1.3
2017-Sep-11 00:00N 33°45' W 118°13'3 5.8
2017-Sep-10 23:31N 33°43' W 118°15'1 1.9
2017-Sep-10 23:00N 33°44' W 118°15'0 0.9
2017-Sep-10 22:30N 33°44' W 118°16'1 2.3
2017-Sep-10 22:00N 33°43' W 118°15'1 2.7
2017-Sep-10 21:30N 33°44' W 118°16'0 0.0
2017-Sep-10 21:00N 33°44' W 118°16'0 0.0
2017-Sep-10 20:30N 33°44' W 118°16'0 0.0
2017-Sep-10 20:00N 33°44' W 118°16'1 1.2
2017-Sep-10 19:30N 33°44' W 118°16'1 1.1
2017-Sep-10 19:00N 33°43' W 118°16'1 1.5
2017-Sep-10 18:30N 33°44' W 118°16'0 0.0
2017-Sep-10 18:00N 33°44' W 118°16'0 0.0
2017-Sep-10 17:30N 33°44' W 118°16'0 0.0
2017-Sep-10 17:00N 33°44' W 118°16'0 0.0
2017-Sep-10 16:30N 33°44' W 118°16'0 0.0
2017-Sep-10 16:00N 33°44' W 118°16'0 0.0
2017-Sep-10 15:29N 33°44' W 118°16'0 0.0
2017-Sep-10 15:00N 33°44' W 118°16'0 0.0
2017-Sep-10 14:00N 33°44' W 118°16'0 0.0
2017-Sep-10 13:30N 33°44' W 118°16'0 0.0
2017-Sep-10 13:00N 33°44' W 118°16'0 0.0
2017-Sep-10 12:30N 33°44' W 118°16'0 0.8
2017-Sep-10 12:00N 33°44' W 118°15'0 0.8
2017-Sep-10 11:30N 33°44' W 118°16'1 2.3
2017-Sep-10 11:00N 33°43' W 118°15'1 2.6
2017-Sep-10 10:30N 33°44' W 118°16'0 0.0
2017-Sep-10 10:00N 33°44' W 118°16'0 0.0
2017-Sep-10 09:30N 33°44' W 118°16'0 0.0
2017-Sep-10 09:00N 33°44' W 118°16'2 3.2
2017-Sep-10 08:30N 33°45' W 118°16'0 0.4
2017-Sep-10 08:00N 33°45' W 118°16'0 0.8
2017-Sep-10 07:30N 33°46' W 118°16'0 0.0
2017-Sep-10 07:00N 33°46' W 118°16'2 3.6
2017-Sep-10 06:30N 33°44' W 118°16'0 0.0
2017-Sep-10 06:00N 33°44' W 118°16'1 1.3
2017-Sep-10 05:30N 33°43' W 118°16'3 6.9
2017-Sep-10 05:00N 33°46' W 118°13'1 1.2
2017-Sep-10 04:30N 33°46' W 118°13'0 0.8
2017-Sep-10 03:57N 33°46' W 118°13'2 4.2
2017-Sep-10 03:28N 33°44' W 118°13'1 2.2
2017-Sep-10 03:00N 33°44' W 118°12'1 2.8
2017-Sep-10 02:30N 33°44' W 118°10'3 5.4
2017-Sep-10 02:00N 33°44' W 118°14'2 3.2
2017-Sep-10 01:30N 33°43' W 118°15'1 2.2
2017-Sep-10 01:00N 33°44' W 118°16'0 0.1
2017-Sep-10 00:30N 33°44' W 118°16'1 2.6
2017-Sep-10 00:00N 33°45' W 118°16'1 1.8
2017-Sep-09 23:30N 33°46' W 118°15'2 3.2
2017-Sep-09 23:00N 33°44' W 118°17'1 1.8
2017-Sep-09 22:30N 33°44' W 118°16'0 0.0
2017-Sep-09 22:00N 33°44' W 118°16'0 0.0
2017-Sep-09 21:30N 33°44' W 118°16'0 0.0
2017-Sep-09 21:00N 33°44' W 118°16'0 0.4
2017-Sep-09 20:30N 33°44' W 118°16'2 4.8
2017-Sep-09 20:00N 33°45' W 118°13'1 2.3
2017-Sep-09 19:30N 33°46' W 118°13'0 0.2
2017-Sep-09 18:59N 33°46' W 118°13'3 5.7
2017-Sep-09 18:30N 33°43' W 118°14'2 3.4
2017-Sep-09 18:00N 33°44' W 118°16'0 0.0
2017-Sep-09 17:30N 33°44' W 118°16'0 0.0
2017-Sep-09 17:00N 33°44' W 118°16'0 0.0
2017-Sep-09 16:27N 33°44' W 118°16'0 0.0
2017-Sep-09 16:00N 33°44' W 118°16'  
Track history (hours):
 
Tides and Currents Weather Stations Pressure Air Temp Water Temp Dewpoint Dewpoint Depression Visibility Wind Speed Wind Dir Waves Ship Positions

Tim Quigg

Owner: Harley Marine Services, Inc, Seattle, WA. More information available from US FCC via Universal Licensing System and Coast Guard Vessel Documentation Center.

Last reported at 2017-Sep-19 15:45 UTC. Time now 2017-Sep-19 16:57 UTC.
Position N 33°44' W 118°16'.

; draft 4.4 m.

Type: Tug. MMSI: 366926740.

Date/timePositionNaut miles runAvg speedWind from/ knotsBaromVisibWave heightAir tempDewpointWater temp
2017-Sep-19 15:45N 33°44' W 118°16'1 4.0
2017-Sep-19 15:30N 33°43' W 118°15'3 3.9
2017-Sep-19 14:45N 33°45' W 118°13'3 3.9
2017-Sep-19 14:04N 33°43' W 118°15'2 4.9
2017-Sep-19 13:42N 33°44' W 118°16'0 0.2
2017-Sep-19 13:21N 33°44' W 118°16'1 1.4
2017-Sep-19 12:53N 33°44' W 118°16'1 1.1
2017-Sep-19 12:20N 33°43' W 118°16'1 2.7
2017-Sep-19 12:00N 33°44' W 118°15'0 0.1
2017-Sep-19 11:23N 33°44' W 118°15'1 1.0
2017-Sep-19 10:43N 33°44' W 118°16'0 0.0
2017-Sep-19 10:30N 33°44' W 118°16'0 0.0
2017-Sep-19 09:54N 33°44' W 118°16'0 0.0
2017-Sep-19 09:28N 33°44' W 118°16'0 0.0
2017-Sep-19 09:00N 33°44' W 118°16'0 0.1
2017-Sep-19 08:29N 33°44' W 118°16'2 4.8
2017-Sep-19 07:59N 33°44' W 118°13'2 4.5
2017-Sep-19 07:27N 33°44' W 118°16'0 0.2
2017-Sep-19 06:51N 33°44' W 118°16'0 0.0
2017-Sep-19 06:29N 33°44' W 118°16'0 0.0
2017-Sep-19 05:44N 33°44' W 118°16'0 0.0
2017-Sep-19 04:46N 33°44' W 118°16'0 0.0
2017-Sep-19 04:19N 33°44' W 118°16'0 0.0
2017-Sep-19 03:41N 33°44' W 118°16'0 0.0
2017-Sep-19 03:23N 33°44' W 118°16'0 0.0
2017-Sep-19 02:59N 33°44' W 118°16'1 2.0
2017-Sep-19 02:29N 33°45' W 118°17'1 0.8
2017-Sep-19 01:48N 33°45' W 118°16'1 3.7
2017-Sep-19 01:26N 33°44' W 118°16'0 0.0
2017-Sep-19 01:00N 33°44' W 118°16'1 1.3
2017-Sep-19 00:30N 33°43' W 118°16'2 4.7
2017-Sep-19 00:00N 33°46' W 118°16'2 3.6
2017-Sep-18 23:29N 33°44' W 118°16'0 0.0
2017-Sep-18 22:56N 33°44' W 118°16'0 0.0
2017-Sep-18 22:16N 33°44' W 118°16'0 0.0
2017-Sep-18 22:00N 33°44' W 118°16'2 4.1
2017-Sep-18 21:30N 33°43' W 118°14'2 4.8
2017-Sep-18 21:00N 33°45' W 118°13'0 0.0
2017-Sep-18 20:20N 33°45' W 118°13'0 0.0
2017-Sep-18 20:00N 33°45' W 118°13'0 0.0
2017-Sep-18 19:29N 33°45' W 118°13'1 1.6
2017-Sep-18 18:56N 33°45' W 118°13'2 4.6
2017-Sep-18 18:30N 33°44' W 118°11'1 1.2
2017-Sep-18 18:00N 33°44' W 118°10'4 7.3
2017-Sep-18 17:26N 33°43' W 118°15'1 2.8
2017-Sep-18 17:00N 33°44' W 118°16'0 0.1
2017-Sep-18 16:28N 33°44' W 118°16'3 6.0
2017-Sep-18 16:00N 33°44' W 118°12'4 7.3
2017-Sep-18 15:30N 33°44' W 118°08'1 1.8
2017-Sep-18 14:42N 33°44' W 118°06'0 0.4
2017-Sep-18 14:29N 33°44' W 118°06'0 0.5
2017-Sep-18 13:57N 33°44' W 118°06'4 8.0
2017-Sep-18 13:29N 33°44' W 118°11'2 4.0
2017-Sep-18 12:55N 33°45' W 118°13'0 0.0
2017-Sep-18 12:28N 33°45' W 118°13'0 0.3
2017-Sep-18 11:57N 33°45' W 118°13'2 4.6
2017-Sep-18 11:29N 33°44' W 118°11'1 1.4
2017-Sep-18 10:57N 33°44' W 118°12'3 6.5
2017-Sep-18 10:29N 33°44' W 118°16'0 0.0
2017-Sep-18 09:58N 33°44' W 118°16'0 0.0
2017-Sep-18 09:23N 33°44' W 118°16'0 0.0
2017-Sep-18 08:53N 33°44' W 118°16'0 0.3
2017-Sep-18 08:29N 33°44' W 118°16'2 4.0
2017-Sep-18 08:00N 33°44' W 118°13'0 0.1
2017-Sep-18 07:29N 33°44' W 118°13'0 0.1
2017-Sep-18 06:57N 33°44' W 118°13'0 0.1
2017-Sep-18 06:20N 33°44' W 118°13'1 3.5
2017-Sep-18 05:57N 33°43' W 118°15'1 2.8
2017-Sep-18 05:30N 33°44' W 118°16'0 0.0
2017-Sep-18 04:19N 33°44' W 118°16'1 2.3
2017-Sep-18 03:58N 33°44' W 118°17'2 3.9
2017-Sep-18 03:25N 33°46' W 118°15'1 3.2
2017-Sep-18 02:59N 33°46' W 118°13'3 4.4
2017-Sep-18 02:16N 33°44' W 118°10'2 6.0
2017-Sep-18 01:54N 33°45' W 118°12'0 0.4
2017-Sep-18 01:17N 33°45' W 118°12'0 0.0
2017-Sep-18 00:49N 33°45' W 118°12'0 0.1
2017-Sep-18 00:25N 33°45' W 118°12'1 2.7
2017-Sep-17 23:59N 33°44' W 118°13'2 3.2
2017-Sep-17 23:28N 33°43' W 118°15'1 2.7
2017-Sep-17 22:59N 33°44' W 118°16'0 0.0
2017-Sep-17 22:30N 33°44' W 118°16'0 0.0
2017-Sep-17 21:58N 33°44' W 118°16'0 0.0
2017-Sep-17 21:29N 33°44' W 118°16'0 0.0
2017-Sep-17 20:55N 33°44' W 118°16'0 0.0
2017-Sep-17 20:30N 33°44' W 118°16'0 0.0
2017-Sep-17 20:00N 33°44' W 118°16'0 0.0
2017-Sep-17 19:30N 33°44' W 118°16'0 0.0
2017-Sep-17 19:00N 33°44' W 118°16'0 0.0
2017-Sep-17 18:30N 33°44' W 118°16'0 0.0
2017-Sep-17 17:34N 33°44' W 118°16'0 0.0
2017-Sep-17 15:35N 33°44' W 118°16'2 2.0
2017-Sep-17 14:38N 33°43' W 118°13'2 8.5
2017-Sep-17 14:26N 33°43' W 118°16'1 1.8
2017-Sep-17 13:54N 33°44' W 118°16'1 1.7
2017-Sep-17 13:14N 33°43' W 118°15'1 2.4
2017-Sep-17 12:44N 33°44' W 118°16'0 0.0
2017-Sep-17 12:28N 33°44' W 118°16'0 0.0
2017-Sep-17 11:56N 33°44' W 118°16'0 0.0
2017-Sep-17 11:26N 33°44' W 118°16'0 0.0
2017-Sep-17 10:55N 33°44' W 118°16'3 6.5
2017-Sep-17 10:28N 33°44' W 118°12'1 1.4
2017-Sep-17 09:58N 33°44' W 118°12'1 2.0
2017-Sep-17 09:30N 33°45' W 118°13'0 0.0
2017-Sep-17 08:55N 33°45' W 118°13'0 0.0
2017-Sep-17 08:30N 33°45' W 118°13'0 0.0
2017-Sep-17 07:59N 33°45' W 118°13'2 3.1
2017-Sep-17 07:28N 33°46' W 118°15'2 3.2
2017-Sep-17 06:50N 33°45' W 118°16'1 3.2
2017-Sep-17 06:30N 33°44' W 118°16'1 2.2
2017-Sep-17 06:00N 33°43' W 118°15'4 4.3
2017-Sep-17 05:10N 33°46' W 118°13'0 0.6
2017-Sep-17 05:00N 33°46' W 118°13'0 0.1
2017-Sep-17 04:28N 33°46' W 118°13'1 2.5
2017-Sep-17 03:57N 33°45' W 118°13'0 0.0
2017-Sep-17 03:29N 33°45' W 118°13'0 0.0
2017-Sep-17 02:57N 33°45' W 118°13'0 0.0
2017-Sep-17 02:22N 33°45' W 118°13'1 1.1
2017-Sep-17 01:23N 33°44' W 118°12'1 2.4
2017-Sep-17 00:57N 33°45' W 118°13'0 0.0
2017-Sep-17 00:29N 33°45' W 118°13'1 1.6
2017-Sep-16 23:58N 33°45' W 118°14'1 3.2
2017-Sep-16 23:30N 33°44' W 118°13'2 3.4
2017-Sep-16 22:57N 33°44' W 118°16'0 0.0
2017-Sep-16 22:28N 33°44' W 118°16'0 0.0
2017-Sep-16 21:54N 33°44' W 118°16'0 0.0
2017-Sep-16 21:30N 33°44' W 118°16'0 0.0
2017-Sep-16 20:58N 33°44' W 118°16'0 0.0
2017-Sep-16 20:30N 33°44' W 118°16'0 0.0
2017-Sep-16 19:59N 33°44' W 118°16'0 0.0
2017-Sep-16 19:30N 33°44' W 118°16'0 0.0
2017-Sep-16 18:58N 33°44' W 118°16'0 0.0
2017-Sep-16 18:30N 33°44' W 118°16'0 0.0
2017-Sep-16 18:00N 33°44' W 118°16'0 0.0
2017-Sep-16 17:31N 33°44' W 118°16'0 0.0
2017-Sep-16 16:56N 33°44' W 118°16'0 0.0
2017-Sep-16 16:16N 33°44' W 118°16'0 0.0
2017-Sep-16 15:57N 33°44' W 118°16'0 0.0
2017-Sep-16 15:28N 33°44' W 118°16'0 0.0
2017-Sep-16 14:16N 33°44' W 118°16'3 3.2
2017-Sep-16 13:18N 33°45' W 118°12'1 3.5
2017-Sep-16 12:53N 33°46' W 118°13'0 0.9
2017-Sep-16 12:25N 33°46' W 118°13'0 0.1
2017-Sep-16 11:58N 33°46' W 118°13'0 0.0
2017-Sep-16 11:27N 33°46' W 118°13'0 0.0
2017-Sep-16 10:59N 33°46' W 118°13'3 6.0
2017-Sep-16 10:27N 33°43' W 118°14'1 3.2
2017-Sep-16 10:00N 33°44' W 118°16'0 0.0
2017-Sep-16 09:30N 33°44' W 118°16'0 0.0
2017-Sep-16 08:48N 33°44' W 118°16'0 0.0
2017-Sep-16 08:21N 33°44' W 118°16'0 0.0
2017-Sep-16 08:00N 33°44' W 118°16'0 0.0
2017-Sep-16 07:30N 33°44' W 118°16'0 0.0
2017-Sep-16 06:56N 33°44' W 118°16'1 3.5
2017-Sep-16 06:30N 33°43' W 118°14'3 6.7
2017-Sep-16 06:00N 33°46' W 118°13'0 0.0
2017-Sep-16 05:27N 33°46' W 118°13'0 0.0
2017-Sep-16 04:59N 33°46' W 118°13'0 0.8
2017-Sep-16 04:27N 33°46' W 118°13'2 3.3
2017-Sep-16 03:55N 33°44' W 118°12'1 3.0
2017-Sep-16 03:30N 33°44' W 118°11'0 0.2
2017-Sep-16 03:00N 33°43' W 118°11'0 0.6
2017-Sep-16 02:29N 33°44' W 118°12'0 0.5
2017-Sep-16 01:59N 33°43' W 118°12'4 6.9
2017-Sep-16 01:26N 33°44' W 118°16'2 4.0
2017-Sep-16 01:00N 33°46' W 118°16'0 0.3
2017-Sep-16 00:29N 33°46' W 118°16'0 0.0
2017-Sep-15 23:56N 33°46' W 118°16'2 4.9
2017-Sep-15 23:31N 33°45' W 118°13'0 0.3
2017-Sep-15 22:58N 33°46' W 118°13'2 3.1
2017-Sep-15 22:29N 33°44' W 118°12'0 1.0
2017-Sep-15 22:01N 33°45' W 118°12'3 5.6
2017-Sep-15 21:28N 33°44' W 118°16'0 0.5
2017-Sep-15 20:59N 33°44' W 118°15'0 0.4
2017-Sep-15 20:31N 33°44' W 118°16'0 0.0
2017-Sep-15 20:01N 33°44' W 118°16'0 0.0
2017-Sep-15 19:31N 33°44' W 118°16'0 0.0
2017-Sep-15 18:56N 33°44' W 118°16'0 0.0
2017-Sep-15 18:26N 33°44' W 118°16'0 0.0
2017-Sep-15 17:59N 33°44' W 118°16'0 0.0
2017-Sep-15 17:30N 33°44' W 118°16'0 0.0
2017-Sep-15 16:51N 33°44' W 118°16'0 0.0
2017-Sep-15 16:29N 33°44' W 118°16'0 0.0
2017-Sep-15 15:59N 33°44' W 118°16'0 0.0
2017-Sep-15 15:29N 33°44' W 118°16'2 4.3
2017-Sep-15 14:57N 33°45' W 118°13'1 1.2
2017-Sep-15 14:30N 33°45' W 118°14'2 4.0
2017-Sep-15 13:57N 33°43' W 118°15'1 2.1
2017-Sep-15 13:30N 33°44' W 118°15'0 0.2
2017-Sep-15 12:58N 33°44' W 118°16'2 3.4
2017-Sep-15 12:23N 33°46' W 118°16'1 1.6
2017-Sep-15 11:57N 33°45' W 118°16'1 2.7
2017-Sep-15 11:28N 33°44' W 118°16'0 0.0
2017-Sep-15 10:59N 33°44' W 118°16'0 0.0
2017-Sep-15 10:28N 33°44' W 118°16'0 0.0
2017-Sep-15 09:58N 33°44' W 118°16'0 0.0
2017-Sep-15 09:29N 33°44' W 118°16'0 0.0
2017-Sep-15 09:00N 33°44' W 118°16'0 0.0
2017-Sep-15 08:30N 33°44' W 118°16'0 0.0
2017-Sep-15 08:00N 33°44' W 118°16'1 1.0
2017-Sep-15 07:28N 33°44' W 118°16'1 1.6
2017-Sep-15 07:00N 33°44' W 118°16'0 0.5
2017-Sep-15 06:27N 33°44' W 118°16'0 0.0
2017-Sep-15 05:56N 33°44' W 118°16'0 0.0
2017-Sep-15 05:28N 33°44' W 118°16'0 0.0
2017-Sep-15 05:01N 33°44' W 118°16'0 0.0
2017-Sep-15 04:28N 33°44' W 118°16'0 0.0
2017-Sep-15 03:54N 33°44' W 118°16'0 0.0
2017-Sep-15 03:26N 33°44' W 118°16'0 0.0
2017-Sep-15 02:57N 33°44' W 118°16'0 0.0
2017-Sep-15 02:30N 33°44' W 118°16'0 0.0
2017-Sep-15 01:57N 33°44' W 118°16'0 0.0
2017-Sep-15 01:30N 33°44' W 118°16'0 0.0
2017-Sep-15 00:58N 33°44' W 118°16'0 0.5
2017-Sep-15 00:30N 33°44' W 118°16'1 1.2
2017-Sep-14 23:59N 33°44' W 118°15'0 0.9
2017-Sep-14 23:28N 33°44' W 118°16'0 0.0
2017-Sep-14 23:00N 33°44' W 118°16'1 1.4
2017-Sep-14 22:30N 33°44' W 118°17'2 3.5
2017-Sep-14 21:56N 33°46' W 118°16'0 0.4
2017-Sep-14 21:30N 33°46' W 118°16'0 0.0
2017-Sep-14 21:01N 33°46' W 118°16'0 0.0
2017-Sep-14 20:29N 33°46' W 118°16'0 0.0
2017-Sep-14 20:00N 33°46' W 118°16'0 0.0
2017-Sep-14 19:27N 33°46' W 118°16'0 0.6
2017-Sep-14 19:01N 33°45' W 118°16'2 2.8
2017-Sep-14 18:27N 33°44' W 118°16'0 0.0
2017-Sep-14 18:00N 33°44' W 118°16'0 0.0
2017-Sep-14 17:30N 33°44' W 118°16'0 0.0
2017-Sep-14 17:00N 33°44' W 118°16'0 0.0
2017-Sep-14 16:30N 33°44' W 118°16'2 4.6
2017-Sep-14 16:00N 33°45' W 118°13'0 0.9
2017-Sep-14 15:30N 33°45' W 118°13'0 0.2
2017-Sep-14 15:01N 33°45' W 118°13'0 0.0
2017-Sep-14 14:30N 33°45' W 118°13'0 0.0
2017-Sep-14 13:59N 33°45' W 118°13'1 2.6
2017-Sep-14 13:27N 33°44' W 118°12'1 1.9
2017-Sep-14 13:00N 33°45' W 118°13'1 2.9
2017-Sep-14 12:30N 33°46' W 118°13'1 1.8
2017-Sep-14 12:00N 33°45' W 118°13'2 3.2
2017-Sep-14 11:21N 33°44' W 118°12'0 0.2
2017-Sep-14 11:00N 33°44' W 118°12'1 2.6
2017-Sep-14 10:30N 33°44' W 118°13'0 0.0
2017-Sep-14 10:00N 33°44' W 118°13'0 0.0
2017-Sep-14 09:29N 33°44' W 118°13'0 0.0
2017-Sep-14 08:59N 33°44' W 118°13'0 0.1
2017-Sep-14 08:30N 33°44' W 118°13'2 3.1
2017-Sep-14 08:00N 33°44' W 118°15'0 0.3
2017-Sep-14 07:30N 33°44' W 118°15'1 2.3
2017-Sep-14 06:59N 33°43' W 118°15'1 2.5
2017-Sep-14 06:29N 33°44' W 118°16'0 0.0
2017-Sep-14 06:00N 33°44' W 118°16'0 0.0
2017-Sep-14 05:30N 33°44' W 118°16'0 0.0
2017-Sep-14 05:00N 33°44' W 118°16'0 0.0
2017-Sep-14 04:28N 33°44' W 118°16'1 2.5
2017-Sep-14 04:00N 33°43' W 118°15'3 6.1
2017-Sep-14 03:30N 33°46' W 118°13'1 1.9
2017-Sep-14 03:00N 33°46' W 118°13'0 0.0
2017-Sep-14 02:30N 33°46' W 118°13'0 0.2
2017-Sep-14 02:00N 33°47' W 118°13'3 6.8
2017-Sep-14 01:30N 33°44' W 118°10'0 0.4
2017-Sep-14 00:58N 33°44' W 118°10'3 7.1
2017-Sep-14 00:30N 33°43' W 118°14'3 5.2
2017-Sep-13 23:59N 33°45' W 118°16'1 1.8
2017-Sep-13 23:30N 33°46' W 118°16'0 0.7
2017-Sep-13 23:00N 33°45' W 118°16'2 4.5
2017-Sep-13 22:30N 33°43' W 118°16'0 0.7
2017-Sep-13 22:00N 33°43' W 118°16'3 5.8
2017-Sep-13 21:30N 33°46' W 118°17'0 0.8
2017-Sep-13 21:00N 33°45' W 118°17'2 4.0
2017-Sep-13 20:30N 33°43' W 118°16'1 2.9
2017-Sep-13 20:00N 33°43' W 118°15'1 2.7
2017-Sep-13 19:30N 33°44' W 118°16'0 0.0
2017-Sep-13 18:58N 33°44' W 118°16'0 0.0
2017-Sep-13 18:29N 33°44' W 118°16'0 0.0
2017-Sep-13 18:00N 33°44' W 118°16'0 0.0
2017-Sep-13 17:29N 33°44' W 118°16'0 0.0
2017-Sep-13 17:00N 33°44' W 118°16'1 1.1
2017-Sep-13 16:30N 33°44' W 118°15'1 2.3
2017-Sep-13 15:58N 33°43' W 118°14'2 3.4
2017-Sep-13 15:29N 33°45' W 118°13'2 4.6
2017-Sep-13 14:59N 33°44' W 118°10'2 4.3
2017-Sep-13 14:27N 33°45' W 118°13'2 3.6
2017-Sep-13 13:59N 33°46' W 118°14'1 2.2
2017-Sep-13 13:24N 33°45' W 118°13'3 6.5
2017-Sep-13 13:00N 33°43' W 118°15'1 2.2
2017-Sep-13 12:30N 33°44' W 118°15'0 0.6
2017-Sep-13 11:55N 33°44' W 118°16'1 1.2
2017-Sep-13 11:30N 33°43' W 118°16'1 1.4
2017-Sep-13 11:00N 33°43' W 118°15'1 2.4
2017-Sep-13 10:30N 33°44' W 118°16'2 3.6
2017-Sep-13 10:00N 33°45' W 118°16'2 3.8
2017-Sep-13 09:26N 33°43' W 118°16'1 1.4
2017-Sep-13 09:00N 33°44' W 118°16'0 0.0
2017-Sep-13 08:29N 33°44' W 118°16'0 0.0
2017-Sep-13 08:00N 33°44' W 118°16'0 0.0
2017-Sep-13 07:30N 33°44' W 118°16'0 0.0
2017-Sep-13 07:00N 33°44' W 118°16'0 0.0
2017-Sep-13 06:28N 33°44' W 118°16'0 0.0
2017-Sep-13 06:00N 33°44' W 118°16'0 0.0
2017-Sep-13 05:30N 33°44' W 118°16'0 0.0
2017-Sep-13 04:59N 33°44' W 118°16'0 0.0
2017-Sep-13 04:30N 33°44' W 118°16'0 0.0
2017-Sep-13 04:00N 33°44' W 118°16'0 0.0
2017-Sep-13 03:30N 33°44' W 118°16'2 4.5
2017-Sep-13 03:01N 33°43' W 118°13'3 6.8
2017-Sep-13 02:30N 33°44' W 118°09'2 3.5
2017-Sep-13 02:00N 33°44' W 118°11'2 3.2
2017-Sep-13 01:30N 33°45' W 118°12'0 0.0
2017-Sep-13 01:00N 33°45' W 118°12'2 4.9
2017-Sep-13 00:30N 33°43' W 118°14'1 2.9
2017-Sep-13 00:00N 33°44' W 118°16'0 0.0
2017-Sep-12 23:31N 33°44' W 118°16'0 0.0
2017-Sep-12 23:00N 33°44' W 118°16'0 0.0
2017-Sep-12 22:31N 33°44' W 118°16'0 0.0
2017-Sep-12 22:00N 33°44' W 118°16'0 0.0
2017-Sep-12 21:31N 33°44' W 118°16'1 1.1
2017-Sep-12 21:00N 33°44' W 118°15'0 0.6
2017-Sep-12 20:30N 33°44' W 118°15'1 1.9
2017-Sep-12 20:00N 33°44' W 118°16'1 2.4
2017-Sep-12 19:30N 33°45' W 118°16'1 2.7
2017-Sep-12 19:00N 33°44' W 118°16'0 0.2
2017-Sep-12 18:30N 33°44' W 118°16'0 0.0
2017-Sep-12 18:00N 33°44' W 118°16'0 0.0
2017-Sep-12 17:30N 33°44' W 118°16'0 0.0
2017-Sep-12 17:00N 33°44' W 118°16'0 0.0
2017-Sep-12 16:30N 33°44' W 118°16'2 3.6
2017-Sep-12 16:01N 33°43' W 118°14'1 1.3
2017-Sep-12 15:30N 33°43' W 118°13'2 3.2
2017-Sep-12 15:00N 33°45' W 118°12'0 0.0
2017-Sep-12 14:30N 33°45' W 118°12'2 3.4
2017-Sep-12 14:01N 33°44' W 118°13'3 5.3
2017-Sep-12 13:30N 33°45' W 118°16'0 0.3
2017-Sep-12 13:00N 33°45' W 118°16'0 0.1
2017-Sep-12 12:30N 33°45' W 118°16'1 2.3
2017-Sep-12 12:00N 33°44' W 118°16'0 0.1
2017-Sep-12 11:30N 33°44' W 118°16'1 2.9
2017-Sep-12 11:00N 33°43' W 118°15'1 2.0
2017-Sep-12 10:30N 33°43' W 118°16'0 0.0
2017-Sep-12 10:00N 33°43' W 118°16'0 0.0
2017-Sep-12 09:30N 33°43' W 118°16'0 0.1
2017-Sep-12 09:00N 33°43' W 118°16'3 6.2
2017-Sep-12 08:30N 33°45' W 118°12'1 2.3
2017-Sep-12 08:00N 33°44' W 118°12'0 0.0
2017-Sep-12 07:30N 33°44' W 118°12'0 0.1
2017-Sep-12 07:00N 33°44' W 118°12'0 0.0
2017-Sep-12 06:30N 33°44' W 118°12'1 1.1
2017-Sep-12 06:00N 33°44' W 118°13'3 5.0
2017-Sep-12 05:30N 33°44' W 118°16'0 0.0
2017-Sep-12 05:00N 33°44' W 118°16'0 0.0
2017-Sep-12 04:30N 33°44' W 118°16'0 0.0
2017-Sep-12 04:00N 33°44' W 118°16'0 0.0
2017-Sep-12 03:30N 33°44' W 118°16'0 0.0
2017-Sep-12 03:00N 33°44' W 118°16'0 0.0
2017-Sep-12 02:30N 33°44' W 118°16'1 1.1
2017-Sep-12 02:00N 33°43' W 118°16'1 1.4
2017-Sep-12 01:30N 33°44' W 118°15'0 0.5
2017-Sep-12 01:00N 33°44' W 118°16'0 0.0
2017-Sep-12 00:30N 33°44' W 118°16'0 0.0
2017-Sep-12 00:00N 33°44' W 118°16'0 0.0
2017-Sep-11 23:30N 33°44' W 118°16'0 0.0
2017-Sep-11 23:00N 33°44' W 118°16'0 0.0
2017-Sep-11 22:30N 33°44' W 118°16'0 0.0
2017-Sep-11 22:00N 33°44' W 118°16'0 0.0
2017-Sep-11 21:30N 33°44' W 118°16'0 0.0
2017-Sep-11 21:00N 33°44' W 118°16'0 0.0
2017-Sep-11 20:30N 33°44' W 118°16'0 0.0
2017-Sep-11 20:00N 33°44' W 118°16'0 0.0
2017-Sep-11 19:30N 33°44' W 118°16'0 0.0
2017-Sep-11 19:00N 33°44' W 118°16'0 0.0
2017-Sep-11 18:30N 33°44' W 118°16'0 0.0
2017-Sep-11 18:00N 33°44' W 118°16'0 0.0
2017-Sep-11 17:30N 33°44' W 118°16'0 0.0
2017-Sep-11 17:00N 33°44' W 118°16'0 0.0
2017-Sep-11 16:30N 33°44' W 118°16'0 0.7
2017-Sep-11 16:00N 33°44' W 118°16'5 9.5
2017-Sep-11 15:30N 33°44' W 118°10'4 7.6
2017-Sep-11 15:00N 33°44' W 118°05'1 1.3
2017-Sep-11 14:30N 33°44' W 118°06'0 0.3
2017-Sep-11 14:01N 33°44' W 118°06'1 1.9
2017-Sep-11 13:30N 33°43' W 118°07'5 9.8
2017-Sep-11 13:00N 33°45' W 118°13'2 3.7
2017-Sep-11 12:31N 33°46' W 118°13'0 0.8
2017-Sep-11 12:00N 33°47' W 118°13'3 5.2
2017-Sep-11 11:30N 33°44' W 118°13'2 3.7
2017-Sep-11 11:00N 33°44' W 118°16'0 0.0
2017-Sep-11 10:30N 33°44' W 118°16'0 0.0
2017-Sep-11 10:00N 33°44' W 118°16'0 0.0
2017-Sep-11 09:30N 33°44' W 118°16'0 0.0
2017-Sep-11 09:00N 33°44' W 118°16'0 0.0
2017-Sep-11 08:30N 33°44' W 118°16'0 0.0
2017-Sep-11 08:00N 33°44' W 118°16'0 0.0
2017-Sep-11 07:30N 33°44' W 118°16'0 0.0
2017-Sep-11 07:00N 33°44' W 118°16'0 0.0
2017-Sep-11 06:30N 33°44' W 118°16'0 0.0
2017-Sep-11 06:00N 33°44' W 118°16'0 0.0
2017-Sep-11 05:30N 33°44' W 118°16'0 0.0
2017-Sep-11 05:00N 33°44' W 118°16'0 0.0
2017-Sep-11 04:30N 33°44' W 118°16'0 0.0
2017-Sep-11 04:00N 33°44' W 118°16'0 0.0
2017-Sep-11 03:30N 33°44' W 118°16'0 0.0
2017-Sep-11 03:00N 33°44' W 118°16'0 0.0
2017-Sep-11 02:30N 33°44' W 118°16'0 0.0
2017-Sep-11 02:00N 33°44' W 118°16'0 0.0
2017-Sep-11 01:31N 33°44' W 118°16'2 4.6
2017-Sep-11 00:59N 33°45' W 118°13'1 2.1
2017-Sep-11 00:30N 33°46' W 118°13'1 1.3
2017-Sep-11 00:00N 33°45' W 118°13'3 5.8
2017-Sep-10 23:31N 33°43' W 118°15'1 1.9
2017-Sep-10 23:00N 33°44' W 118°15'0 0.9
2017-Sep-10 22:30N 33°44' W 118°16'1 2.3
2017-Sep-10 22:00N 33°43' W 118°15'1 2.7
2017-Sep-10 21:30N 33°44' W 118°16'0 0.0
2017-Sep-10 21:00N 33°44' W 118°16'0 0.0
2017-Sep-10 20:30N 33°44' W 118°16'0 0.0
2017-Sep-10 20:00N 33°44' W 118°16'1 1.2
2017-Sep-10 19:30N 33°44' W 118°16'1 1.1
2017-Sep-10 19:00N 33°43' W 118°16'1 1.5
2017-Sep-10 18:30N 33°44' W 118°16'0 0.0
2017-Sep-10 18:00N 33°44' W 118°16'0 0.0
2017-Sep-10 17:30N 33°44' W 118°16'0 0.0
2017-Sep-10 17:00N 33°44' W 118°16'0 0.0
2017-Sep-10 16:30N 33°44' W 118°16'0 0.0
2017-Sep-10 16:00N 33°44' W 118°16'0 0.0
2017-Sep-10 15:29N 33°44' W 118°16'0 0.0
2017-Sep-10 15:00N 33°44' W 118°16'0 0.0
2017-Sep-10 14:00N 33°44' W 118°16'0 0.0
2017-Sep-10 13:30N 33°44' W 118°16'0 0.0
2017-Sep-10 13:00N 33°44' W 118°16'0 0.0
2017-Sep-10 12:30N 33°44' W 118°16'0 0.8
2017-Sep-10 12:00N 33°44' W 118°15'0 0.8
2017-Sep-10 11:30N 33°44' W 118°16'1 2.3
2017-Sep-10 11:00N 33°43' W 118°15'1 2.6
2017-Sep-10 10:30N 33°44' W 118°16'0 0.0
2017-Sep-10 10:00N 33°44' W 118°16'0 0.0
2017-Sep-10 09:30N 33°44' W 118°16'0 0.0
2017-Sep-10 09:00N 33°44' W 118°16'2 3.2
2017-Sep-10 08:30N 33°45' W 118°16'0 0.4
2017-Sep-10 08:00N 33°45' W 118°16'0 0.8
2017-Sep-10 07:30N 33°46' W 118°16'0 0.0
2017-Sep-10 07:00N 33°46' W 118°16'2 3.6
2017-Sep-10 06:30N 33°44' W 118°16'0 0.0
2017-Sep-10 06:00N 33°44' W 118°16'1 1.3
2017-Sep-10 05:30N 33°43' W 118°16'3 6.9
2017-Sep-10 05:00N 33°46' W 118°13'1 1.2
2017-Sep-10 04:30N 33°46' W 118°13'0 0.8
2017-Sep-10 03:57N 33°46' W 118°13'2 4.2
2017-Sep-10 03:28N 33°44' W 118°13'1 2.2
2017-Sep-10 03:00N 33°44' W 118°12'1 2.8
2017-Sep-10 02:30N 33°44' W 118°10'3 5.4
2017-Sep-10 02:00N 33°44' W 118°14'2 3.2
2017-Sep-10 01:30N 33°43' W 118°15'1 2.2
2017-Sep-10 01:00N 33°44' W 118°16'0 0.1
2017-Sep-10 00:30N 33°44' W 118°16'1 2.6
2017-Sep-10 00:00N 33°45' W 118°16'1 1.8
2017-Sep-09 23:30N 33°46' W 118°15'2 3.2
2017-Sep-09 23:00N 33°44' W 118°17'1 1.8
2017-Sep-09 22:30N 33°44' W 118°16'0 0.0
2017-Sep-09 22:00N 33°44' W 118°16'0 0.0
2017-Sep-09 21:30N 33°44' W 118°16'0 0.0
2017-Sep-09 21:00N 33°44' W 118°16'0 0.4
2017-Sep-09 20:30N 33°44' W 118°16'2 4.8
2017-Sep-09 20:00N 33°45' W 118°13'1 2.3
2017-Sep-09 19:30N 33°46' W 118°13'0 0.2
2017-Sep-09 18:59N 33°46' W 118°13'3 5.7
2017-Sep-09 18:30N 33°43' W 118°14'2 3.4
2017-Sep-09 18:00N 33°44' W 118°16'0 0.0
2017-Sep-09 17:30N 33°44' W 118°16'0 0.0
2017-Sep-09 17:00N 33°44' W 118°16'0 0.0
2017-Sep-09 16:27N 33°44' W 118°16'0 0.0
2017-Sep-09 16:00N 33°44' W 118°16'  

Dump ship's entire track history